Time;durP1;ratioP1;P1;durP2;ratioP2;P2;SDS_P1;SDS_P2;PMS_P1;PMS_P2;Temp;Humidity;BMP_temperature;BMP_pressure;BME280_temperature;BME280_humidity;BME280_pressure;Samples;Min_cycle;Max_cycle;Signal;HPM_P1;HPM_P2
2021/03/05 00:01:39;;;;;;;25.15;8.63;;;4.90;53.50;;;;;;4992778;28;20452;-74
2021/03/05 00:04:04;;;;;;;31.80;9.95;;;4.90;53.30;;;;;;4992966;28;20399;-74
2021/03/05 00:06:30;;;;;;;26.52;8.93;;;4.90;53.30;;;;;;4992789;28;20407;-73
2021/03/05 00:08:55;;;;;;;27.33;9.67;;;4.90;53.30;;;;;;4992210;28;20420;-72
2021/03/05 00:11:21;;;;;;;31.30;8.90;;;4.90;53.90;;;;;;4992689;28;20471;-72
2021/03/05 00:13:46;;;;;;;25.33;8.63;;;4.90;51.90;;;;;;4992210;28;20399;-73
2021/03/05 00:16:12;;;;;;;29.20;9.40;;;4.80;51.10;;;;;;4992673;28;20807;-73
2021/03/05 00:18:37;;;;;;;27.93;8.70;;;4.80;51.80;;;;;;4993093;28;20390;-72
2021/03/05 00:21:03;;;;;;;21.80;8.10;;;4.80;52.80;;;;;;4974903;28;20394;-71
2021/03/05 00:23:29;;;;;;;24.30;8.60;;;4.70;52.20;;;;;;4992809;28;20394;-72
2021/03/05 00:25:54;;;;;;;26.93;8.50;;;4.70;52.60;;;;;;4991733;28;20395;-72
2021/03/05 00:28:20;;;;;;;30.13;9.47;;;4.70;52.60;;;;;;4992221;28;20868;-72
2021/03/05 00:30:46;;;;;;;29.05;8.32;;;4.70;53.20;;;;;;4974713;28;21287;-72
2021/03/05 00:33:12;;;;;;;30.73;7.80;;;4.70;51.40;;;;;;4992675;28;20421;-72
2021/03/05 00:35:37;;;;;;;33.87;8.33;;;4.70;51.40;;;;;;4992375;28;20884;-72
2021/03/05 00:38:03;;;;;;;29.48;7.68;;;4.70;50.80;;;;;;4992473;28;20414;-72
2021/03/05 00:40:29;;;;;;;27.55;7.35;;;4.70;51.40;;;;;;4991658;28;20417;-73
2021/03/05 00:42:54;;;;;;;24.43;7.13;;;4.70;50.90;;;;;;4992260;28;20404;-72
2021/03/05 00:45:22;;;;;;;27.60;8.10;;;4.70;51.70;;;;;;4992452;28;20748;-73
2021/03/05 00:47:47;;;;;;;22.42;7.75;;;4.70;52.90;;;;;;4992257;28;20834;-73
2021/03/05 00:50:15;;;;;;;31.57;8.47;;;4.70;52.30;;;;;;4991923;28;20485;-73
2021/03/05 00:52:41;;;;;;;31.25;7.60;;;4.70;52.90;;;;;;4991944;28;20426;-72
2021/03/05 00:55:08;;;;;;;24.08;7.75;;;4.70;52.10;;;;;;4974693;28;20939;-73
2021/03/05 00:57:34;;;;;;;28.90;8.32;;;4.70;52.70;;;;;;4992176;28;20443;-72
2021/03/05 00:59:59;;;;;;;31.63;8.00;;;4.70;52.10;;;;;;4991403;28;20816;-72
2021/03/05 01:02:25;;;;;;;20.50;7.97;;;4.70;53.60;;;;;;4991897;28;20470;-73
2021/03/05 01:04:51;;;;;;;22.67;7.43;;;4.80;53.40;;;;;;4992164;28;20387;-72
2021/03/05 01:07:16;;;;;;;39.85;8.20;;;4.80;52.40;;;;;;4992149;28;20884;-73
2021/03/05 01:09:42;;;;;;;25.35;7.43;;;4.70;52.70;;;;;;4991438;28;20845;-73
2021/03/05 01:12:08;;;;;;;20.73;7.30;;;4.60;54.80;;;;;;4992135;28;20444;-73
2021/03/05 01:14:34;;;;;;;35.47;8.85;;;4.50;56.50;;;;;;4991966;28;20473;-73
2021/03/05 01:17:00;;;;;;;21.70;7.80;;;4.50;57.50;;;;;;4992070;28;20715;-72
2021/03/05 01:19:26;;;;;;;25.38;8.10;;;4.60;58.10;;;;;;4991198;28;20429;-72
2021/03/05 01:21:52;;;;;;;29.98;7.95;;;4.60;58.60;;;;;;4991693;28;20405;-72
2021/03/05 01:24:17;;;;;;;27.10;8.00;;;4.60;57.80;;;;;;4991897;28;20473;-73
2021/03/05 01:26:43;;;;;;;25.60;7.93;;;4.60;58.30;;;;;;4991654;28;20460;-72
2021/03/05 01:29:08;;;;;;;22.63;7.80;;;4.50;58.00;;;;;;4990903;28;20409;-72
2021/03/05 01:31:35;;;;;;;31.63;8.70;;;4.50;58.40;;;;;;4991493;28;20387;-73
2021/03/05 01:34:01;;;;;;;29.90;9.25;;;4.50;59.50;;;;;;4991530;28;20453;-72
2021/03/05 01:36:27;;;;;;;26.90;9.57;;;4.50;59.60;;;;;;5010008;28;20416;-71
2021/03/05 01:38:52;;;;;;;31.93;10.70;;;4.50;59.70;;;;;;4989828;28;20464;-72
2021/03/05 01:41:18;;;;;;;31.73;11.43;;;4.50;60.70;;;;;;4990917;28;20618;-71
2021/03/05 01:43:43;;;;;;;36.03;13.38;;;4.50;61.00;;;;;;4991197;28;20391;-72
2021/03/05 01:46:09;;;;;;;36.20;13.07;;;4.60;61.70;;;;;;4991319;28;20405;-73
2021/03/05 01:48:37;;;;;;;30.50;11.90;;;4.60;62.40;;;;;;4990982;28;20409;-72
2021/03/05 01:51:27;;;;;;;44.67;13.68;;;4.60;60.70;;;;;;4988802;28;20432;-72
2021/03/05 01:53:52;;;;;;;40.90;14.25;;;4.60;62.50;;;;;;4991323;28;20789;-73
2021/03/05 01:56:42;;;;;;;48.53;14.37;;;4.60;64.00;;;;;;4991127;28;20548;-73
2021/03/05 01:59:14;;;;;;;45.20;14.90;;;4.70;62.50;;;;;;4990796;28;20390;-72
2021/03/05 02:01:40;;;;;;;42.00;15.10;;;4.70;63.30;;;;;;4991041;28;20872;-72
2021/03/05 02:04:10;;;;;;;35.60;14.40;;;4.70;64.10;;;;;;4990712;28;20405;-71
2021/03/05 02:06:36;;;;;;;40.60;15.38;;;4.70;64.40;;;;;;4991094;28;20402;-72
2021/03/05 02:09:04;;;;;;;45.17;16.40;;;4.70;65.40;;;;;;4990707;28;20893;-72
2021/03/05 02:11:30;;;;;;;54.30;18.40;;;4.70;66.60;;;;;;4990421;28;20434;-72
2021/03/05 02:13:56;;;;;;;49.22;19.20;;;4.70;65.60;;;;;;4991185;28;20398;-71
2021/03/05 02:16:43;;;;;;;48.28;18.63;;;4.70;66.30;;;;;;4992206;28;20445;-73
2021/03/05 02:19:12;;;;;;;46.72;17.90;;;4.70;65.90;;;;;;4994315;28;20386;-72
2021/03/05 02:21:57;;;;;;;52.58;19.05;;;4.70;66.70;;;;;;4993580;28;20404;-73
2021/03/05 02:24:50;;;;;;;50.60;19.13;;;4.70;66.50;;;;;;4993989;28;20382;-72
2021/03/05 02:27:41;;;;;;;46.78;17.17;;;4.80;67.30;;;;;;4993911;28;20489;-72
2021/03/05 02:30:28;;;;;;;42.67;17.10;;;4.80;66.60;;;;;;4982728;28;20398;-73
2021/03/05 02:33:02;;;;;;;39.22;17.17;;;4.80;68.20;;;;;;4974250;28;20392;-73
2021/03/05 02:35:31;;;;;;;35.70;15.35;;;4.90;68.00;;;;;;4975357;28;20396;-73
2021/03/05 02:38:02;;;;;;;28.20;14.00;;;5.00;66.00;;;;;;4974672;28;20407;-72
2021/03/05 02:40:39;;;;;;;40.00;14.95;;;4.90;64.40;;;;;;4985300;28;20394;-72
2021/03/05 02:43:07;;;;;;;44.63;18.00;;;4.90;66.00;;;;;;4994224;28;20476;-73
2021/03/05 02:45:41;;;;;;;48.08;18.77;;;4.90;66.10;;;;;;4993091;28;20899;-72
2021/03/05 02:48:13;;;;;;;44.20;19.60;;;4.90;64.40;;;;;;4993209;28;20460;-72
2021/03/05 02:50:45;;;;;;;41.13;20.70;;;4.90;64.90;;;;;;4994663;28;20386;-71
2021/03/05 02:53:17;;;;;;;42.38;19.95;;;4.90;65.30;;;;;;4996826;28;20390;-72
2021/03/05 02:55:46;;;;;;;43.50;22.63;;;5.00;63.90;;;;;;4997271;28;20611;-73
2021/03/05 02:58:13;;;;;;;48.75;21.50;;;5.00;64.10;;;;;;4996446;28;20405;-72
2021/03/05 03:00:41;;;;;;;42.75;20.23;;;5.00;62.40;;;;;;4995969;28;20404;-72
2021/03/05 03:03:07;;;;;;;41.50;20.58;;;5.10;63.60;;;;;;4997197;28;20386;-72
2021/03/05 03:05:33;;;;;;;39.63;20.60;;;5.10;62.10;;;;;;4997004;28;20775;-72
2021/03/05 03:08:00;;;;;;;40.65;20.73;;;5.10;60.60;;;;;;4996441;28;20386;-72
2021/03/05 03:10:27;;;;;;;44.83;21.42;;;5.00;59.40;;;;;;4995929;28;20473;-73
2021/03/05 03:12:54;;;;;;;42.88;23.10;;;4.90;58.70;;;;;;4996484;28;20398;-72
2021/03/05 03:15:23;;;;;;;43.92;22.65;;;4.90;61.10;;;;;;4996517;28;20466;-73
2021/03/05 03:17:51;;;;;;;40.53;22.20;;;5.00;59.20;;;;;;4996432;28;20421;-73
2021/03/05 03:20:19;;;;;;;37.80;21.70;;;5.10;58.20;;;;;;4995478;28;20399;-73
2021/03/05 03:22:45;;;;;;;37.55;20.27;;;5.10;59.00;;;;;;4996595;28;20391;-72
2021/03/05 03:25:12;;;;;;;36.60;19.30;;;5.10;58.60;;;;;;4994931;28;20737;-72
2021/03/05 03:27:38;;;;;;;32.45;19.73;;;5.10;58.60;;;;;;4995342;28;20404;-73
2021/03/05 03:30:10;;;;;;;34.17;19.80;;;5.10;58.20;;;;;;4985510;28;20405;-73
2021/03/05 03:32:38;;;;;;;35.15;19.42;;;5.00;58.60;;;;;;4998132;28;20395;-73
2021/03/05 03:35:08;;;;;;;35.28;20.60;;;5.10;57.90;;;;;;4998899;28;20760;-73
2021/03/05 03:37:35;;;;;;;40.00;20.88;;;5.00;57.80;;;;;;4997939;28;20407;-73
2021/03/05 03:40:16;;;;;;;34.75;20.48;;;5.10;59.10;;;;;;4996633;28;20391;-73
2021/03/05 03:42:43;;;;;;;35.50;20.10;;;5.10;58.20;;;;;;4996722;28;20440;-72
2021/03/05 03:45:10;;;;;;;34.65;20.83;;;5.10;55.50;;;;;;4997070;28;20459;-73
2021/03/05 03:47:37;;;;;;;31.92;19.23;;;5.00;55.50;;;;;;4979184;28;20928;-73
2021/03/05 03:50:06;;;;;;;35.10;20.08;;;4.90;55.30;;;;;;4996444;28;20409;-74
2021/03/05 03:52:42;;;;;;;36.08;18.65;;;4.90;56.10;;;;;;4996440;28;20791;-73
2021/03/05 03:55:09;;;;;;;32.65;18.80;;;4.90;55.10;;;;;;4997029;28;20899;-72
2021/03/05 03:57:45;;;;;;;31.67;18.70;;;4.90;56.30;;;;;;4993367;28;20407;-72
2021/03/05 04:00:12;;;;;;;33.95;19.38;;;4.80;56.60;;;;;;4992335;28;20481;-73
2021/03/05 04:02:39;;;;;;;32.25;18.33;;;4.90;56.90;;;;;;4993471;28;20390;-72
2021/03/05 04:05:09;;;;;;;29.10;18.15;;;4.80;56.20;;;;;;4993332;28;20390;-73
2021/03/05 04:07:37;;;;;;;28.88;17.92;;;4.80;56.10;;;;;;4993327;28;20888;-72
2021/03/05 04:10:05;;;;;;;29.58;17.88;;;4.90;57.10;;;;;;4992437;28;20753;-73
2021/03/05 04:12:31;;;;;;;32.53;18.20;;;4.90;56.90;;;;;;4993116;28;20883;-72
2021/03/05 04:14:57;;;;;;;32.37;18.40;;;4.90;57.00;;;;;;4993128;28;20452;-73
2021/03/05 04:17:23;;;;;;;31.52;17.85;;;4.90;55.70;;;;;;4992987;28;20500;-74
2021/03/05 04:19:51;;;;;;;25.27;14.63;;;4.90;55.90;;;;;;4992022;28;20438;-73
2021/03/05 04:22:17;;;;;;;25.95;14.18;;;4.80;53.30;;;;;;4992684;28;20409;-72
2021/03/05 04:24:43;;;;;;;27.58;15.90;;;4.70;53.40;;;;;;4992158;28;20398;-72
2021/03/05 04:27:10;;;;;;;25.85;14.30;;;4.70;54.20;;;;;;4992746;28;20637;-73
2021/03/05 04:29:36;;;;;;;25.30;13.00;;;4.60;53.40;;;;;;4977937;28;20413;-73
2021/03/05 04:32:02;;;;;;;22.40;12.97;;;4.50;52.90;;;;;;4995077;28;20898;-74
2021/03/05 04:34:28;;;;;;;22.63;13.85;;;4.50;53.10;;;;;;4994069;28;20394;-73
2021/03/05 04:36:54;;;;;;;25.25;15.07;;;4.50;53.40;;;;;;4992108;28;20410;-73
2021/03/05 04:39:19;;;;;;;25.55;13.30;;;4.50;53.60;;;;;;4991992;28;20944;-73
2021/03/05 04:41:45;;;;;;;23.73;12.98;;;4.50;52.20;;;;;;4992127;28;20428;-73
2021/03/05 04:44:11;;;;;;;24.40;14.90;;;4.50;51.70;;;;;;4992627;28;20428;-73
2021/03/05 04:46:36;;;;;;;19.55;13.43;;;4.50;53.50;;;;;;4992579;28;20406;-73
2021/03/05 04:49:02;;;;;;;22.50;12.88;;;4.60;52.10;;;;;;4992538;28;20402;-73
2021/03/05 04:51:28;;;;;;;23.37;13.60;;;4.50;51.20;;;;;;4991604;28;20447;-73
2021/03/05 04:53:53;;;;;;;23.08;14.18;;;4.50;51.70;;;;;;4992351;28;20544;-73
2021/03/05 04:56:19;;;;;;;22.50;13.50;;;4.50;50.40;;;;;;4992441;28;20882;-73
2021/03/05 04:58:44;;;;;;;25.23;12.80;;;4.50;50.50;;;;;;4992290;28;20474;-72
2021/03/05 05:01:10;;;;;;;22.30;12.02;;;4.40;48.50;;;;;;4991730;28;20513;-73
2021/03/05 05:03:35;;;;;;;20.97;12.10;;;4.40;48.40;;;;;;4992158;28;20390;-73
2021/03/05 05:06:01;;;;;;;22.57;12.10;;;4.30;49.50;;;;;;4992348;28;20449;-73
2021/03/05 05:08:27;;;;;;;17.80;11.10;;;4.40;50.20;;;;;;4991819;28;20390;-73
2021/03/05 05:10:52;;;;;;;15.10;9.80;;;4.40;47.70;;;;;;4990761;28;20884;-73
2021/03/05 05:13:18;;;;;;;15.38;9.25;;;4.40;49.00;;;;;;4991476;28;20421;-73
2021/03/05 05:15:43;;;;;;;17.58;8.80;;;4.30;47.10;;;;;;4974446;28;20764;-72
2021/03/05 05:18:09;;;;;;;16.40;9.20;;;4.20;47.10;;;;;;4991932;28;20845;-72
2021/03/05 05:20:35;;;;;;;14.77;9.23;;;4.10;48.50;;;;;;4991010;28;20430;-73
2021/03/05 05:23:00;;;;;;;14.45;9.43;;;4.10;48.50;;;;;;4991837;28;20394;-73
2021/03/05 05:25:26;;;;;;;14.60;8.13;;;4.00;49.80;;;;;;4974706;28;20538;-74
2021/03/05 05:27:52;;;;;;;16.77;8.27;;;4.00;47.50;;;;;;4986773;28;20396;-73
2021/03/05 05:30:17;;;;;;;12.30;7.33;;;4.00;49.10;;;;;;4980156;28;20467;-73
2021/03/05 05:32:43;;;;;;;9.30;6.90;;;3.90;47.90;;;;;;4991863;28;20954;-73
2021/03/05 05:35:09;;;;;;;11.70;7.32;;;3.80;47.60;;;;;;4992381;28;20391;-73
2021/03/05 05:37:34;;;;;;;8.68;5.95;;;3.70;47.30;;;;;;4992729;28;20406;-71
2021/03/05 05:40:00;;;;;;;12.10;6.47;;;3.60;48.00;;;;;;4992241;28;20383;-71
2021/03/05 05:42:25;;;;;;;9.55;6.13;;;3.50;47.10;;;;;;4992262;28;20903;-71
2021/03/05 05:44:51;;;;;;;11.18;6.35;;;3.40;46.70;;;;;;4993312;28;20394;-71
2021/03/05 05:47:17;;;;;;;11.50;5.70;;;3.30;47.80;;;;;;4992666;28;20408;-72
2021/03/05 05:49:44;;;;;;;14.38;5.95;;;3.10;47.70;;;;;;4991513;28;20402;-70
2021/03/05 05:52:20;;;;;;;9.57;6.03;;;3.00;47.40;;;;;;4990717;28;20463;-71
2021/03/05 05:54:47;;;;;;;11.15;6.45;;;2.90;49.00;;;;;;4973374;28;20758;-70
2021/03/05 05:57:14;;;;;;;12.35;6.50;;;2.80;49.20;;;;;;4972638;28;20448;-71
2021/03/05 05:59:41;;;;;;;8.00;5.95;;;2.80;50.50;;;;;;4972137;28;20396;-71
2021/03/05 06:02:08;;;;;;;11.60;6.90;;;2.70;49.60;;;;;;4989664;28;20395;-71
2021/03/05 06:04:34;;;;;;;8.30;6.03;;;2.60;51.00;;;;;;4991883;28;20391;-70
2021/03/05 06:07:02;;;;;;;10.73;7.45;;;2.60;50.60;;;;;;4992424;28;20484;-70
2021/03/05 06:09:27;;;;;;;7.85;5.78;;;2.50;50.60;;;;;;4992431;28;20402;-73
2021/03/05 06:11:53;;;;;;;11.60;6.30;;;2.50;50.60;;;;;;4991038;28;20402;-72
2021/03/05 06:14:20;;;;;;;12.67;6.50;;;2.40;50.90;;;;;;4991881;28;20386;-71
2021/03/05 06:16:56;;;;;;;9.48;6.03;;;2.30;51.20;;;;;;4991881;28;20484;-72
2021/03/05 06:19:25;;;;;;;13.30;6.18;;;2.30;51.50;;;;;;4991898;28;20903;-71
2021/03/05 06:21:51;;;;;;;10.35;6.43;;;2.30;52.10;;;;;;4991662;28;20406;-71
2021/03/05 06:24:17;;;;;;;9.57;6.28;;;2.30;52.00;;;;;;4992009;28;20734;-71
2021/03/05 06:26:58;;;;;;;9.15;5.90;;;2.30;52.50;;;;;;4995610;28;20514;-70
2021/03/05 06:29:27;;;;;;;10.68;6.03;;;2.30;52.40;;;;;;4978368;28;20434;-72
2021/03/05 06:31:59;;;;;;;12.07;5.70;;;2.20;50.60;;;;;;4992916;28;20452;-72
2021/03/05 06:34:26;;;;;;;9.43;5.20;;;2.30;51.70;;;;;;4993322;28;20469;-72
2021/03/05 06:37:05;;;;;;;5.90;4.50;;;2.30;50.90;;;;;;4993115;28;20421;-72
2021/03/05 06:39:32;;;;;;;9.73;5.10;;;2.30;49.40;;;;;;4993094;28;20420;-71
2021/03/05 06:42:01;;;;;;;7.85;4.82;;;2.20;50.40;;;;;;4992402;28;20485;-72
2021/03/05 06:44:26;;;;;;;9.18;4.47;;;2.20;49.20;;;;;;4992365;28;20410;-72
2021/03/05 06:46:52;;;;;;;6.50;4.22;;;2.20;49.20;;;;;;4947788;28;1251248;-71
2021/03/05 06:49:19;;;;;;;6.07;4.13;;;2.20;48.00;;;;;;4995360;28;20402;-71
2021/03/05 06:51:54;;;;;;;5.80;3.90;;;2.20;48.30;;;;;;4992999;28;20402;-72
2021/03/05 06:54:21;;;;;;;8.98;3.78;;;2.10;48.00;;;;;;4996100;28;20947;-71
2021/03/05 06:56:49;;;;;;;5.07;4.13;;;2.10;48.30;;;;;;4995797;28;20413;-71
2021/03/05 06:59:17;;;;;;;6.65;4.20;;;2.20;49.70;;;;;;4995659;28;20406;-73
2021/03/05 07:01:52;;;;;;;8.98;3.90;;;2.30;50.50;;;;;;4995068;28;20389;-71
2021/03/05 07:04:22;;;;;;;8.23;3.88;;;2.30;52.40;;;;;;4995810;28;20425;-75
2021/03/05 07:07:01;;;;;;;5.53;3.97;;;2.40;46.50;;;;;;4973438;28;20486;-70
2021/03/05 07:09:33;;;;;;;5.63;3.80;;;2.40;48.80;;;;;;4986629;28;20398;-71
2021/03/05 07:12:00;;;;;;;5.38;3.08;;;2.40;46.50;;;;;;4992737;28;20402;-72
2021/03/05 07:14:28;;;;;;;6.80;3.27;;;2.30;45.00;;;;;;4993549;28;20796;-70
2021/03/05 07:16:55;;;;;;;9.43;4.20;;;2.30;45.60;;;;;;4993297;28;20425;-70
2021/03/05 07:19:22;;;;;;;10.48;4.40;;;2.20;46.00;;;;;;4986161;28;20442;-70
2021/03/05 07:21:49;;;;;;;7.20;4.63;;;2.20;46.60;;;;;;4990741;28;20399;-71
2021/03/05 07:24:18;;;;;;;6.25;3.47;;;2.30;46.60;;;;;;4992809;28;20398;-73
2021/03/05 07:26:52;;;;;;;7.40;3.38;;;2.30;45.60;;;;;;4971813;28;20998;-71
2021/03/05 07:29:26;;;;;;;5.28;3.60;;;2.30;45.30;;;;;;4990951;28;20413;-71
2021/03/05 07:32:06;;;;;;;9.60;3.70;;;2.40;46.40;;;;;;4992927;28;20814;-72
2021/03/05 07:34:58;;;;;;;9.10;5.00;;;2.40;44.40;;;;;;4974075;28;20431;-72
2021/03/05 07:37:53;;;;;;;9.07;4.00;;;2.50;44.80;;;;;;4977539;28;20501;-72
2021/03/05 07:40:19;;;;;;;5.20;3.25;;;2.50;43.90;;;;;;4991907;28;20974;-72
2021/03/05 07:42:45;;;;;;;10.77;3.43;;;2.50;43.20;;;;;;4993770;28;20488;-72
2021/03/05 07:45:13;;;;;;;6.90;3.75;;;2.50;44.10;;;;;;4994182;28;20390;-72
2021/03/05 07:47:42;;;;;;;6.45;3.50;;;2.50;43.30;;;;;;4975702;28;20490;-73
2021/03/05 07:50:10;;;;;;;11.85;4.18;;;2.50;43.30;;;;;;4992804;28;20402;-73
2021/03/05 07:52:37;;;;;;;5.70;3.40;;;2.60;43.10;;;;;;4993518;28;20773;-72
2021/03/05 07:55:04;;;;;;;6.95;3.35;;;2.70;42.40;;;;;;4993013;28;20827;-72
2021/03/05 07:57:32;;;;;;;13.73;6.40;;;2.60;41.20;;;;;;4993420;28;20497;-71
2021/03/05 07:59:59;;;;;;;9.88;5.15;;;2.60;41.50;;;;;;4992473;28;20409;-72
2021/03/05 08:02:45;;;;;;;10.40;6.00;;;2.50;42.30;;;;;;4994485;28;20402;-72
2021/03/05 08:05:14;;;;;;;19.17;8.68;;;2.60;42.70;;;;;;4996233;28;20462;-71
2021/03/05 08:07:39;;;;;;;11.50;5.55;;;2.70;42.60;;;;;;4995596;28;20386;-73
2021/03/05 08:10:06;;;;;;;9.90;5.00;;;2.70;41.50;;;;;;4995749;28;20469;-72
2021/03/05 08:12:42;;;;;;;10.68;4.80;;;2.80;42.20;;;;;;4995516;28;20409;-73
2021/03/05 08:15:37;;;;;;;13.00;5.93;;;2.80;39.90;;;;;;4994199;28;20441;-71
2021/03/05 08:18:18;;;;;;;6.07;3.58;;;2.80;40.70;;;;;;4981429;28;20415;-72
2021/03/05 08:20:51;;;;;;;11.13;5.25;;;2.90;41.20;;;;;;4992372;28;20394;-73
2021/03/05 08:23:17;;;;;;;7.15;3.55;;;3.00;41.20;;;;;;4993756;28;20425;-72
2021/03/05 08:25:51;;;;;;;7.93;3.20;;;3.20;40.20;;;;;;4994961;28;20390;-72
2021/03/05 08:28:42;;;;;;;5.30;3.05;;;3.20;38.70;;;;;;4977407;28;20803;-72
2021/03/05 08:31:36;;;;;;;7.82;3.75;;;3.20;38.40;;;;;;4992581;28;20490;-73
2021/03/05 08:34:22;;;;;;;7.18;3.10;;;3.10;38.40;;;;;;4994751;28;20859;-73
2021/03/05 08:36:48;;;;;;;5.80;3.60;;;3.00;37.50;;;;;;4993215;28;20533;-72
2021/03/05 08:39:27;;;;;;;8.63;3.40;;;2.90;38.40;;;;;;4987153;28;20483;-71
2021/03/05 08:42:32;;;;;;;8.27;2.95;;;3.00;39.00;;;;;;4991826;28;20434;-71
2021/03/05 08:45:18;;;;;;;7.13;3.10;;;3.00;38.40;;;;;;4975829;28;20717;-72
2021/03/05 08:48:02;;;;;;;12.95;7.35;;;3.00;38.10;;;;;;4992015;28;20499;-70
2021/03/05 08:50:35;;;;;;;5.45;3.50;;;3.00;38.90;;;;;;4992317;28;20768;-71
2021/03/05 08:53:06;;;;;;;13.23;5.15;;;3.10;39.20;;;;;;4992336;28;20437;-73
2021/03/05 08:55:33;;;;;;;6.93;4.43;;;3.30;39.60;;;;;;4975025;28;20481;-71
2021/03/05 08:57:59;;;;;;;9.02;4.55;;;3.50;39.00;;;;;;4992730;28;20411;-71
2021/03/05 09:00:28;;;;;;;9.07;4.80;;;3.80;37.50;;;;;;4991506;28;20663;-72
2021/03/05 09:03:12;;;;;;;7.50;4.80;;;3.90;36.10;;;;;;4992225;28;20488;-71
2021/03/05 09:05:41;;;;;;;10.20;5.88;;;3.90;35.30;;;;;;4992025;28;20418;-72
2021/03/05 09:08:08;;;;;;;13.63;6.75;;;3.80;37.00;;;;;;4991380;28;20414;-71
2021/03/05 09:10:43;;;;;;;19.08;7.10;;;3.80;37.70;;;;;;4994534;28;20390;-71
2021/03/05 09:13:09;;;;;;;10.40;6.93;;;3.90;38.70;;;;;;4994072;28;20402;-71
2021/03/05 09:15:50;;;;;;;13.73;6.90;;;4.10;37.30;;;;;;4994262;28;20394;-72
2021/03/05 09:18:21;;;;;;;9.47;6.70;;;4.10;35.30;;;;;;4993082;28;20788;-71
2021/03/05 09:20:49;;;;;;;15.20;6.80;;;4.10;35.30;;;;;;4993587;28;20651;-71
2021/03/05 09:23:26;;;;;;;10.80;7.00;;;4.20;35.40;;;;;;4991548;28;20433;-71
2021/03/05 09:25:57;;;;;;;12.25;6.22;;;4.10;33.90;;;;;;4992188;28;20437;-70
2021/03/05 09:28:25;;;;;;;10.00;6.60;;;4.10;33.30;;;;;;4982950;28;20491;-71
2021/03/05 09:30:53;;;;;;;7.95;5.90;;;4.00;35.10;;;;;;4986568;28;20391;-72
2021/03/05 09:33:41;;;;;;;12.38;5.95;;;4.00;34.00;;;;;;5012270;22;20686;-71
2021/03/05 09:36:17;;;;;;;8.80;5.90;;;3.90;33.80;;;;;;5011992;28;20428;-72
2021/03/05 09:38:44;;;;;;;11.25;6.28;;;3.90;33.90;;;;;;5008955;28;20397;-72
2021/03/05 09:41:20;;;;;;;11.07;6.20;;;4.00;35.10;;;;;;5012739;28;20890;-71
2021/03/05 09:44:00;;;;;;;9.97;5.70;;;4.10;34.60;;;;;;5013759;28;20749;-72
2021/03/05 09:46:30;;;;;;;11.25;5.60;;;4.20;32.40;;;;;;5012541;28;20885;-71
2021/03/05 09:48:57;;;;;;;11.90;5.20;;;4.20;30.20;;;;;;4995161;28;20396;-70
2021/03/05 09:51:24;;;;;;;8.70;4.60;;;4.60;29.80;;;;;;5011987;28;20385;-71
2021/03/05 09:53:55;;;;;;;9.57;4.85;;;4.60;29.10;;;;;;4994557;28;20418;-70
2021/03/05 09:56:24;;;;;;;11.95;5.93;;;4.60;29.10;;;;;;4994379;28;20418;-70
2021/03/05 09:58:53;;;;;;;12.13;7.57;;;4.70;31.20;;;;;;4992265;28;20430;-70
2021/03/05 10:01:19;;;;;;;11.10;6.40;;;4.70;31.40;;;;;;4994053;28;20403;-71
2021/03/05 10:03:51;;;;;;;13.55;6.65;;;4.80;31.90;;;;;;4990663;28;20379;-71
2021/03/05 10:06:17;;;;;;;7.80;4.60;;;5.00;30.60;;;;;;4993327;28;20394;-70
2021/03/05 10:08:42;;;;;;;11.00;4.35;;;5.00;27.70;;;;;;4992160;28;20907;-72
2021/03/05 10:11:13;;;;;;;9.20;4.78;;;5.00;27.80;;;;;;4978852;28;20415;-72
2021/03/05 10:13:59;;;;;;;9.38;3.92;;;5.10;27.10;;;;;;4983173;28;20777;-71
2021/03/05 10:16:26;;;;;;;7.72;3.83;;;5.10;25.10;;;;;;5004541;28;20400;-70
2021/03/05 10:18:55;;;;;;;7.70;3.55;;;5.30;23.20;;;;;;5003011;28;20455;-71
2021/03/05 10:21:22;;;;;;;7.82;3.95;;;5.40;20.80;;;;;;4992537;28;20462;-72
2021/03/05 10:23:48;;;;;;;8.73;4.45;;;5.30;22.30;;;;;;4997938;28;20405;-71
2021/03/05 10:26:25;;;;;;;6.15;3.80;;;5.40;23.10;;;;;;5011218;28;20385;-70
2021/03/05 10:29:09;;;;;;;7.28;4.00;;;5.40;20.20;;;;;;5007708;28;20484;-71
2021/03/05 10:31:54;;;;;;;6.35;3.70;;;5.40;21.10;;;;;;4991643;28;20393;-71
2021/03/05 10:34:34;;;;;;;8.88;4.03;;;5.40;21.80;;;;;;4993582;28;20413;-73
2021/03/05 10:37:02;;;;;;;6.35;3.60;;;5.50;22.70;;;;;;4991119;28;20414;-72
2021/03/05 10:39:33;;;;;;;7.40;4.45;;;5.60;19.70;;;;;;5003238;28;20823;-71
2021/03/05 10:42:01;;;;;;;7.80;4.15;;;5.60;22.80;;;;;;5010038;28;20796;-71
2021/03/05 10:44:31;;;;;;;8.52;3.80;;;5.60;21.50;;;;;;4995537;28;20409;-71
2021/03/05 10:47:04;;;;;;;8.25;3.83;;;5.70;20.90;;;;;;4994809;28;20403;-71
2021/03/05 10:49:30;;;;;;;8.10;3.60;;;5.80;18.10;;;;;;5009332;28;20873;-70
2021/03/05 10:51:56;;;;;;;8.90;3.53;;;5.90;17.70;;;;;;5005433;28;20406;-71
2021/03/05 10:57:48;;;;;;;6.40;3.80;;;5.90;19.50;;;;;;4990865;28;20493;-71
2021/03/05 11:00:14;;;;;;;7.30;3.53;;;6.00;19.10;;;;;;4971789;28;20418;-71
2021/03/05 11:02:40;;;;;;;9.43;4.40;;;6.00;19.00;;;;;;4990086;28;20410;-70
2021/03/05 11:05:06;;;;;;;8.37;4.10;;;6.10;19.80;;;;;;4993252;28;20456;-71
2021/03/05 11:07:31;;;;;;;10.15;3.80;;;6.20;19.30;;;;;;4992167;28;20410;-71
2021/03/05 11:09:57;;;;;;;7.30;4.55;;;6.30;20.30;;;;;;4989988;28;20405;-71
2021/03/05 11:12:22;;;;;;;7.13;3.70;;;6.40;20.00;;;;;;4975528;28;20463;-71
2021/03/05 11:14:48;;;;;;;4.23;2.80;;;6.40;19.60;;;;;;4995314;28;20530;-71
2021/03/05 11:17:13;;;;;;;2.63;2.17;;;6.40;15.30;;;;;;5013162;28;20405;-70
2021/03/05 11:19:39;;;;;;;6.37;2.57;;;6.10;13.30;;;;;;5012948;28;20408;-73
2021/03/05 11:22:04;;;;;;;4.80;2.00;;;6.00;14.10;;;;;;4995248;28;20394;-72
2021/03/05 11:24:30;;;;;;;5.30;2.30;;;6.00;12.00;;;;;;4995144;28;20402;-72
2021/03/05 11:26:55;;;;;;;6.03;2.50;;;5.90;13.70;;;;;;5009575;28;20399;-72
2021/03/05 11:29:21;;;;;;;3.57;2.23;;;6.00;14.10;;;;;;4996194;28;20378;-72
2021/03/05 11:31:46;;;;;;;4.20;2.40;;;5.90;14.10;;;;;;5013063;28;20464;-70
2021/03/05 11:34:12;;;;;;;6.03;3.00;;;5.90;14.90;;;;;;5009238;28;20447;-70
2021/03/05 11:36:38;;;;;;;4.68;3.08;;;6.10;17.00;;;;;;4993636;28;20896;-71
2021/03/05 11:39:04;;;;;;;8.25;3.20;;;6.10;17.70;;;;;;4993536;28;20414;-71
2021/03/05 11:41:30;;;;;;;3.65;2.30;;;6.30;15.40;;;;;;4995686;28;20405;-70
2021/03/05 11:43:55;;;;;;;4.60;2.60;;;6.40;12.80;;;;;;4997838;28;20505;-71
2021/03/05 11:46:22;;;;;;;3.53;2.13;;;6.50;14.50;;;;;;5009227;28;20431;-72
2021/03/05 11:48:49;;;;;;;5.68;3.40;;;6.50;14.30;;;;;;5013076;28;20385;-73
2021/03/05 11:51:16;;;;;;;6.40;2.90;;;6.40;15.90;;;;;;5000460;28;20481;-73
2021/03/05 11:53:41;;;;;;;6.45;2.70;;;6.60;17.00;;;;;;4997440;28;20390;-75
2021/03/05 11:56:10;;;;;;;11.63;4.80;;;6.70;16.40;;;;;;4998423;28;20400;-75
2021/03/05 11:58:36;;;;;;;4.97;2.90;;;6.70;17.60;;;;;;4995527;28;20411;-74
2021/03/05 12:01:02;;;;;;;7.07;2.75;;;6.80;16.10;;;;;;4996117;28;20398;-72
2021/03/05 12:03:27;;;;;;;3.97;2.67;;;6.90;16.70;;;;;;4996344;28;20489;-72
2021/03/05 12:05:53;;;;;;;3.97;2.20;;;7.00;13.90;;;;;;4994938;28;20433;-72
2021/03/05 12:08:18;;;;;;;6.50;2.40;;;7.00;14.40;;;;;;5005360;28;20420;-73
2021/03/05 12:10:44;;;;;;;7.07;2.30;;;7.00;15.90;;;;;;5016118;28;20404;-71
2021/03/05 12:13:11;;;;;;;3.53;2.20;;;7.00;11.30;;;;;;5014117;28;20415;-73
2021/03/05 12:15:37;;;;;;;4.35;2.35;;;7.00;13.20;;;;;;5009794;28;20404;-70
2021/03/05 12:18:03;;;;;;;3.60;2.13;;;7.00;10.70;;;;;;5002961;28;20526;-70
2021/03/05 12:20:28;;;;;;;3.60;2.08;;;6.70;11.60;;;;;;4993651;28;20390;-70
2021/03/05 12:22:54;;;;;;;4.70;2.27;;;6.80;10.80;;;;;;4993198;28;20544;-71
2021/03/05 12:25:19;;;;;;;6.73;2.23;;;6.80;9.80;;;;;;4994208;28;20893;-71
2021/03/05 12:27:48;;;;;;;2.03;1.80;;;6.90;11.40;;;;;;4997997;28;20434;-70
2021/03/05 12:30:14;;;;;;;2.60;2.08;;;7.00;12.10;;;;;;4992515;28;20398;-70
2021/03/05 12:32:39;;;;;;;4.65;2.20;;;7.00;10.10;;;;;;4991948;28;20445;-70
2021/03/05 12:35:06;;;;;;;2.47;1.70;;;6.90;11.10;;;;;;4992498;28;20417;-70
2021/03/05 12:37:31;;;;;;;3.80;2.10;;;6.90;10.70;;;;;;5001335;28;20412;-71
2021/03/05 12:39:57;;;;;;;4.95;2.22;;;6.90;10.30;;;;;;5008861;28;20834;-71
2021/03/05 12:42:22;;;;;;;2.95;1.73;;;6.80;9.80;;;;;;5002034;28;20892;-74
2021/03/05 12:44:48;;;;;;;2.90;1.80;;;6.80;10.30;;;;;;5003293;28;20396;-70
2021/03/05 12:47:13;;;;;;;3.20;1.58;;;6.90;10.60;;;;;;4986571;28;20406;-70
2021/03/05 12:49:39;;;;;;;2.22;1.73;;;6.80;9.90;;;;;;4991478;28;20420;-71
2021/03/05 12:52:04;;;;;;;1.60;1.40;;;6.70;11.30;;;;;;4991490;28;20436;-70
2021/03/05 12:54:30;;;;;;;2.40;2.00;;;6.80;11.50;;;;;;4974856;28;20646;-72
2021/03/05 12:56:56;;;;;;;2.10;1.30;;;6.90;7.90;;;;;;4996745;28;20447;-71
2021/03/05 12:59:21;;;;;;;2.60;1.70;;;6.90;7.90;;;;;;5010630;28;20396;-71
2021/03/05 13:01:50;;;;;;;4.38;1.60;;;7.00;9.40;;;;;;5001711;28;20483;-70